createdAt,value
2019-06-26T00:02:27.944Z,97.70
2019-06-26T00:04:58.072Z,98.40
2019-06-26T00:07:28.155Z,97.90
2019-06-26T00:09:58.205Z,98.40
2019-06-26T00:12:28.267Z,98.50
2019-06-26T00:14:59.405Z,98.40
2019-06-26T00:17:29.507Z,98.40
2019-06-26T00:19:59.542Z,98.60
2019-06-26T00:22:29.599Z,98.90
2019-06-26T00:24:59.722Z,98.90
2019-06-26T00:27:29.832Z,99.60
2019-06-26T00:30:00.012Z,99.30
2019-06-26T00:32:30.068Z,99.70
2019-06-26T00:35:00.154Z,99.80
2019-06-26T00:37:30.172Z,99.70
2019-06-26T00:40:00.323Z,99.90
2019-06-26T00:42:30.447Z,99.90
2019-06-26T00:45:00.643Z,99.90
2019-06-26T00:47:30.689Z,99.90
2019-06-26T00:50:00.820Z,99.90
2019-06-26T00:52:30.935Z,99.90
2019-06-26T00:55:01.063Z,99.90
2019-06-26T00:57:31.260Z,99.90
2019-06-26T01:00:03.054Z,99.90
2019-06-26T01:02:34.764Z,99.90
2019-06-26T01:05:11.920Z,99.90
2019-06-26T01:07:42.086Z,99.90
2019-06-26T01:10:14.266Z,99.90
2019-06-26T01:12:44.317Z,99.90
2019-06-26T01:15:14.815Z,99.90
2019-06-26T01:17:44.936Z,99.90
2019-06-26T01:20:15.462Z,99.90
2019-06-26T01:22:45.507Z,99.90
2019-06-26T01:25:16.194Z,99.90
2019-06-26T01:27:46.268Z,99.90
2019-06-26T01:30:16.435Z,99.90
2019-06-26T01:32:46.526Z,99.90
2019-06-26T01:35:16.623Z,99.90
2019-06-26T01:37:46.756Z,99.90
2019-06-26T01:40:18.409Z,99.90
2019-06-26T01:42:48.591Z,99.90
2019-06-26T01:45:19.019Z,99.90
2019-06-26T01:47:49.083Z,99.90
2019-06-26T01:50:19.286Z,99.90
2019-06-26T01:52:49.332Z,99.90
2019-06-26T01:55:19.411Z,99.90
2019-06-26T01:57:49.518Z,99.90
2019-06-26T02:00:20.766Z,99.90
2019-06-26T02:02:50.942Z,99.90
2019-06-26T02:05:21.030Z,99.90
2019-06-26T02:07:51.187Z,99.90
2019-06-26T02:10:21.816Z,99.90
2019-06-26T02:12:51.876Z,99.90
2019-06-26T02:15:22.059Z,99.90
2019-06-26T02:17:52.152Z,99.90
2019-06-26T02:20:22.203Z,99.90
2019-06-26T02:22:52.315Z,99.90
2019-06-26T02:25:22.372Z,99.90
2019-06-26T02:27:52.492Z,99.90
2019-06-26T02:30:22.754Z,99.90
2019-06-26T02:32:52.872Z,99.90
2019-06-26T02:35:22.919Z,99.90
2019-06-26T02:37:52.982Z,99.90
2019-06-26T02:40:23.170Z,99.90
2019-06-26T02:42:53.292Z,99.90
2019-06-26T02:45:23.475Z,99.90
2019-06-26T02:47:53.615Z,99.90
2019-06-26T02:50:23.669Z,99.90
2019-06-26T02:52:53.732Z,99.90
2019-06-26T02:55:23.843Z,99.90
2019-06-26T02:57:53.986Z,99.90
2019-06-26T03:00:24.111Z,99.90
2019-06-26T03:02:54.169Z,99.90
2019-06-26T03:05:24.215Z,99.90
2019-06-26T03:07:54.353Z,99.90
2019-06-26T03:10:24.408Z,99.90
2019-06-26T03:12:54.530Z,99.90
2019-06-26T03:15:24.580Z,99.90
2019-06-26T03:17:55.932Z,99.90
2019-06-26T03:20:29.225Z,99.90
2019-06-26T03:22:59.348Z,99.90
2019-06-26T03:25:30.630Z,99.90
2019-06-26T03:28:00.679Z,99.90
2019-06-26T03:30:30.948Z,99.90
2019-06-26T03:33:00.999Z,99.90
2019-06-26T03:35:31.138Z,99.90
2019-06-26T03:38:01.183Z,99.90
2019-06-26T03:40:31.246Z,99.90
2019-06-26T03:43:01.376Z,99.90
2019-06-26T03:45:31.564Z,99.90
2019-06-26T03:48:01.687Z,99.90
2019-06-26T03:50:31.813Z,99.90
2019-06-26T03:53:01.889Z,99.90
2019-06-26T03:55:31.995Z,99.90
2019-06-26T03:58:02.120Z,99.90
2019-06-26T04:00:43.224Z,99.90
2019-06-26T04:03:13.338Z,99.90
2019-06-26T04:05:43.389Z,99.90
2019-06-26T04:08:13.457Z,99.90
2019-06-26T04:10:43.760Z,99.90
2019-06-26T04:13:13.966Z,99.90
2019-06-26T04:15:44.138Z,99.90
2019-06-26T04:18:14.187Z,99.90
2019-06-26T04:20:44.370Z,99.90
2019-06-26T04:23:14.411Z,99.90
2019-06-26T04:25:44.532Z,99.90
2019-06-26T04:28:14.589Z,99.90
2019-06-26T04:30:44.638Z,99.90
2019-06-26T04:33:15.040Z,99.90
2019-06-26T04:35:45.070Z,99.90
2019-06-26T04:38:15.225Z,99.90
2019-06-26T04:40:45.273Z,99.90
2019-06-26T04:43:15.331Z,99.90
2019-06-26T04:45:57.730Z,98.70
2019-06-26T04:48:17.598Z,99.40
2019-06-26T04:50:47.643Z,98.30
2019-06-26T04:55:47.211Z,93.00
2019-06-26T04:58:17.357Z,92.30
2019-06-26T05:00:48.469Z,90.40
2019-06-26T05:03:18.559Z,88.80
2019-06-26T05:05:48.600Z,87.00
2019-06-26T05:08:18.629Z,84.40
2019-06-26T05:10:48.742Z,82.70
2019-06-26T05:13:18.853Z,81.70
2019-06-26T05:15:48.964Z,81.30
2019-06-26T05:18:19.008Z,81.60
2019-06-26T05:20:49.058Z,81.90
2019-06-26T05:23:19.162Z,81.10
2019-06-26T05:25:50.333Z,79.40
2019-06-26T05:28:20.355Z,78.40
2019-06-26T05:30:50.467Z,78.30
2019-06-26T05:33:20.516Z,78.60
2019-06-26T05:35:50.570Z,77.60
2019-06-26T05:38:21.857Z,75.50
2019-06-26T05:40:51.972Z,75.00
2019-06-26T05:43:22.007Z,74.90
2019-06-26T05:45:52.108Z,73.90
2019-06-26T05:48:22.332Z,72.80
2019-06-26T05:50:52.451Z,71.80
2019-06-26T05:53:22.497Z,70.90
2019-06-26T05:55:52.693Z,69.30
2019-06-26T05:58:22.735Z,71.10
2019-06-26T06:00:52.789Z,70.90
2019-06-26T06:03:22.931Z,69.10
2019-06-26T06:05:53.134Z,67.40
2019-06-26T06:08:23.171Z,69.20
2019-06-26T06:10:53.299Z,70.10
2019-06-26T06:13:23.700Z,74.30
2019-06-26T06:15:53.754Z,75.60
2019-06-26T06:18:23.799Z,76.70
2019-06-26T06:20:53.846Z,73.60
2019-06-26T06:23:23.886Z,74.00
2019-06-26T06:25:53.937Z,75.00
2019-06-26T06:28:24.070Z,71.90
2019-06-26T06:30:54.170Z,71.00
2019-06-26T06:33:24.283Z,71.40
2019-06-26T06:35:54.414Z,71.20
2019-06-26T06:38:24.484Z,72.20
2019-06-26T06:40:54.587Z,72.00
2019-06-26T06:43:24.639Z,73.40
2019-06-26T06:45:54.751Z,74.80
2019-06-26T06:48:24.805Z,76.50
2019-06-26T06:50:54.847Z,75.60
2019-06-26T06:53:24.932Z,76.50
2019-06-26T06:55:55.052Z,77.80
2019-06-26T06:58:25.170Z,79.80
2019-06-26T07:00:55.299Z,79.80
2019-06-26T07:03:25.391Z,82.40
2019-06-26T07:05:55.437Z,82.10
2019-06-26T07:08:25.492Z,81.40
2019-06-26T07:10:55.614Z,81.10
2019-06-26T07:13:25.730Z,81.20
2019-06-26T07:15:55.778Z,82.00
2019-06-26T07:18:25.892Z,81.60
2019-06-26T07:20:56.010Z,82.70
2019-06-26T07:23:26.051Z,80.60
2019-06-26T07:25:56.174Z,80.30
2019-06-26T07:28:26.213Z,81.90
2019-06-26T07:30:56.245Z,81.50
2019-06-26T07:33:26.553Z,81.30
2019-06-26T07:35:56.598Z,81.20
2019-06-26T07:38:26.654Z,83.60
2019-06-26T07:40:56.769Z,83.30
2019-06-26T07:43:26.795Z,82.40
2019-06-26T07:45:56.916Z,83.10
2019-06-26T07:48:26.959Z,83.50
2019-06-26T07:50:57.031Z,83.40
2019-06-26T07:53:27.074Z,85.50
2019-06-26T07:55:57.176Z,86.70
2019-06-26T07:58:27.254Z,85.10
2019-06-26T08:00:57.448Z,84.10
2019-06-26T08:03:27.499Z,86.30
2019-06-26T08:05:57.608Z,85.70
2019-06-26T08:08:27.674Z,84.70
2019-06-26T08:11:00.740Z,85.30
2019-06-26T08:13:30.868Z,85.10
2019-06-26T08:16:00.910Z,83.60
2019-06-26T08:18:30.962Z,85.20
2019-06-26T08:21:12.075Z,84.30
2019-06-26T08:23:33.528Z,87.10
2019-06-26T08:26:03.639Z,85.80
2019-06-26T08:28:33.724Z,87.00
2019-06-26T08:31:03.842Z,85.10
2019-06-26T08:33:33.952Z,83.10
2019-06-26T08:36:04.078Z,82.40
2019-06-26T08:38:34.131Z,82.20
2019-06-26T08:41:05.418Z,83.70
2019-06-26T08:43:35.458Z,82.70
2019-06-26T08:46:05.581Z,81.90
2019-06-26T08:48:40.027Z,83.00
2019-06-26T08:51:07.426Z,81.60
2019-06-26T08:53:37.586Z,83.50
2019-06-26T08:56:07.770Z,84.40
2019-06-26T08:58:37.815Z,81.00
2019-06-26T09:01:07.931Z,85.20
2019-06-26T09:03:41.097Z,81.40
2019-06-26T09:06:09.773Z,81.60
2019-06-26T09:08:39.890Z,80.80
2019-06-26T09:11:09.943Z,82.60
2019-06-26T09:13:39.974Z,79.40
2019-06-26T09:16:10.037Z,78.30
2019-06-26T09:18:40.081Z,82.20
2019-06-26T09:21:10.130Z,79.60
2019-06-26T09:23:40.173Z,80.00
2019-06-26T09:26:10.235Z,79.60
2019-06-26T09:28:41.877Z,79.00
2019-06-26T09:31:11.926Z,79.90
2019-06-26T09:33:41.976Z,78.70
2019-06-26T09:36:13.102Z,79.80
2019-06-26T09:38:43.163Z,80.20
2019-06-26T09:41:13.287Z,77.90
2019-06-26T09:43:43.335Z,79.00
2019-06-26T09:46:14.522Z,76.60
2019-06-26T09:48:52.638Z,76.80
2019-06-26T09:51:16.302Z,79.20
2019-06-26T09:53:47.891Z,80.60
2019-06-26T09:56:18.252Z,83.10
2019-06-26T09:58:48.357Z,77.50
2019-06-26T10:01:18.485Z,80.00
2019-06-26T10:03:48.592Z,76.10
2019-06-26T10:06:18.625Z,77.20
2019-06-26T10:08:48.674Z,80.10
2019-06-26T10:11:18.744Z,84.70
2019-06-26T10:13:49.929Z,80.70
2019-06-26T10:16:19.983Z,81.70
2019-06-26T10:18:50.092Z,79.90
2019-06-26T10:21:23.491Z,79.80
2019-06-26T10:23:51.815Z,74.80
2019-06-26T10:26:21.886Z,75.30
2019-06-26T10:28:52.184Z,74.50
2019-06-26T10:31:22.617Z,76.70
2019-06-26T10:33:52.751Z,74.30
2019-06-26T10:36:24.748Z,74.90
2019-06-26T10:38:55.013Z,76.00
2019-06-26T10:41:25.115Z,77.00
2019-06-26T10:43:55.167Z,75.90
2019-06-26T10:46:25.359Z,77.00
2019-06-26T10:48:55.407Z,74.20
2019-06-26T10:51:25.462Z,74.70
2019-06-26T10:53:55.491Z,78.40
2019-06-26T10:56:28.655Z,76.10
2019-06-26T10:58:57.432Z,73.60
2019-06-26T11:01:27.488Z,74.80
2019-06-26T11:03:57.636Z,73.40
2019-06-26T11:06:27.668Z,73.90
2019-06-26T11:08:57.709Z,72.00
2019-06-26T11:11:27.755Z,71.50
2019-06-26T11:13:57.841Z,72.00
2019-06-26T11:16:27.870Z,73.10
2019-06-26T11:18:57.990Z,77.90
2019-06-26T11:21:28.031Z,76.40
2019-06-26T11:23:58.107Z,78.60
2019-06-26T11:26:28.285Z,76.90
2019-06-26T11:28:59.590Z,75.20
2019-06-26T11:31:29.635Z,72.90
2019-06-26T11:33:59.691Z,73.10
2019-06-26T11:36:29.810Z,74.40
2019-06-26T11:39:00.034Z,75.90
2019-06-26T11:41:30.040Z,76.30
2019-06-26T11:44:00.095Z,72.20
2019-06-26T11:46:30.298Z,70.00
2019-06-26T11:49:00.494Z,72.40
2019-06-26T11:51:30.683Z,73.10
2019-06-26T11:54:00.807Z,71.10
2019-06-26T11:56:30.952Z,73.70
2019-06-26T11:59:00.987Z,74.20
2019-06-26T12:01:31.056Z,76.80
2019-06-26T12:04:01.105Z,75.20
2019-06-26T12:06:31.256Z,72.20
2019-06-26T12:09:01.308Z,74.60
2019-06-26T12:11:32.953Z,72.30
2019-06-26T12:14:03.080Z,72.30
2019-06-26T12:16:33.211Z,75.60
2019-06-26T12:19:03.329Z,72.30
2019-06-26T12:21:33.506Z,70.70
2019-06-26T12:24:03.654Z,69.10
2019-06-26T12:26:33.810Z,68.30
2019-06-26T12:29:03.947Z,69.40
2019-06-26T12:31:34.075Z,70.70
2019-06-26T12:34:04.295Z,69.50
2019-06-26T12:36:34.431Z,68.60
2019-06-26T12:39:06.835Z,71.30
2019-06-26T12:41:37.020Z,72.80
2019-06-26T12:44:07.074Z,67.50
2019-06-26T12:46:37.188Z,68.20
2019-06-26T12:49:07.276Z,71.00
2019-06-26T12:51:37.518Z,70.60
2019-06-26T12:54:07.679Z,69.60
2019-06-26T12:56:37.732Z,68.10
2019-06-26T12:59:07.840Z,66.20
2019-06-26T13:01:38.045Z,70.20
2019-06-26T13:04:08.148Z,69.70
2019-06-26T13:06:38.211Z,67.90
2019-06-26T13:09:08.724Z,69.80
2019-06-26T13:11:38.869Z,71.50
2019-06-26T13:14:08.982Z,69.10
2019-06-26T13:16:39.170Z,72.00
2019-06-26T13:19:09.328Z,69.80
2019-06-26T13:21:39.405Z,72.10
2019-06-26T13:24:09.568Z,68.40
2019-06-26T13:26:39.688Z,72.80
2019-06-26T13:29:10.252Z,69.40
2019-06-26T13:31:40.360Z,71.50
2019-06-26T13:34:10.396Z,67.90
2019-06-26T13:36:40.468Z,68.80
2019-06-26T13:39:10.661Z,68.50
2019-06-26T13:41:40.700Z,70.00
2019-06-26T13:44:12.347Z,67.30
2019-06-26T13:46:42.410Z,62.20
2019-06-26T13:49:12.441Z,63.80
2019-06-26T13:51:42.519Z,64.50
2019-06-26T13:54:12.610Z,66.40
2019-06-26T13:56:42.924Z,66.40
2019-06-26T13:59:13.040Z,63.80
2019-06-26T14:01:43.233Z,64.30
2019-06-26T14:04:13.335Z,67.30
2019-06-26T14:06:43.539Z,67.00
2019-06-26T14:09:13.588Z,65.40
2019-06-26T14:11:43.626Z,66.20
2019-06-26T14:14:15.247Z,66.20
2019-06-26T14:16:46.174Z,66.50
2019-06-26T14:19:16.209Z,68.30
2019-06-26T14:21:46.256Z,68.10
2019-06-26T14:24:16.374Z,68.00
2019-06-26T14:26:46.428Z,65.10
2019-06-26T14:29:20.767Z,67.20
2019-06-26T14:31:49.224Z,66.60
2019-06-26T14:34:19.344Z,66.50
2019-06-26T14:36:49.396Z,63.30
2019-06-26T14:39:19.524Z,65.60
2019-06-26T14:41:49.625Z,65.10
2019-06-26T14:44:19.719Z,63.60
2019-06-26T14:46:49.722Z,65.80
2019-06-26T14:49:19.827Z,62.40
2019-06-26T14:51:49.908Z,63.90
2019-06-26T14:54:19.963Z,65.00
2019-06-26T14:56:50.075Z,65.40
2019-06-26T14:59:20.113Z,63.70
2019-06-26T15:01:50.297Z,63.60
2019-06-26T15:04:20.429Z,63.80
2019-06-26T15:06:50.716Z,63.80
2019-06-26T15:09:20.812Z,64.70
2019-06-26T15:11:50.867Z,63.70
2019-06-26T15:14:20.928Z,62.80
2019-06-26T15:16:50.976Z,63.40
2019-06-26T15:19:21.044Z,62.00
2019-06-26T15:21:58.519Z,62.40
2019-06-26T15:24:22.766Z,62.60
2019-06-26T15:26:52.871Z,60.70
2019-06-26T15:29:22.916Z,63.00
2019-06-26T15:31:52.986Z,62.30
2019-06-26T15:34:26.140Z,64.40
2019-06-26T15:36:54.769Z,61.60
2019-06-26T15:39:24.971Z,61.60
2019-06-26T15:41:55.104Z,60.00
2019-06-26T15:44:25.135Z,59.80
2019-06-26T15:46:55.189Z,56.50
2019-06-26T15:49:25.339Z,56.60
2019-06-26T15:51:55.379Z,57.00
2019-06-26T15:54:25.433Z,54.50
2019-06-26T15:56:55.469Z,54.40
2019-06-26T15:59:25.527Z,55.00
2019-06-26T16:01:55.565Z,55.10
2019-06-26T16:04:25.684Z,55.80
2019-06-26T16:06:55.730Z,55.50
2019-06-26T16:09:25.779Z,54.90
2019-06-26T16:11:58.720Z,54.30
2019-06-26T16:14:27.554Z,51.70
2019-06-26T16:16:59.222Z,51.20
2019-06-26T16:19:29.429Z,51.70
2019-06-26T16:21:59.517Z,54.10
2019-06-26T16:24:30.635Z,54.00
2019-06-26T16:27:00.783Z,54.20
2019-06-26T16:29:30.824Z,54.10
2019-06-26T16:32:00.959Z,54.10
2019-06-26T16:34:30.997Z,55.10
2019-06-26T16:37:01.258Z,53.80
2019-06-26T16:39:31.403Z,52.20
2019-06-26T16:42:01.525Z,50.60
2019-06-26T16:44:31.564Z,50.00
2019-06-26T16:47:01.672Z,51.40
2019-06-26T16:49:31.757Z,52.10
2019-06-26T16:52:01.813Z,53.00
2019-06-26T16:54:31.920Z,53.50
2019-06-26T16:57:01.973Z,53.20
2019-06-26T16:59:32.153Z,54.20
2019-06-26T17:02:02.282Z,53.20
2019-06-26T17:04:32.325Z,51.90
2019-06-26T17:07:03.505Z,53.00
2019-06-26T17:09:36.338Z,52.40
2019-06-26T17:12:06.507Z,53.20
2019-06-26T17:14:36.827Z,53.40
2019-06-26T17:17:06.973Z,53.40
2019-06-26T17:19:37.036Z,54.40
2019-06-26T17:22:07.220Z,53.40
2019-06-26T17:24:37.496Z,54.20
2019-06-26T17:27:07.578Z,54.40
2019-06-26T17:29:37.630Z,55.90
2019-06-26T17:32:07.686Z,58.10
2019-06-26T17:34:37.740Z,56.20
2019-06-26T17:37:07.920Z,55.90
2019-06-26T17:39:37.962Z,56.80
2019-06-26T17:42:08.094Z,58.60
2019-06-26T17:44:38.136Z,58.30
2019-06-26T17:47:08.263Z,59.80
2019-06-26T17:49:38.321Z,60.90
2019-06-26T17:52:08.380Z,60.70
2019-06-26T17:54:38.418Z,60.80
2019-06-26T17:57:08.485Z,62.50
2019-06-26T17:59:38.607Z,61.10
2019-06-26T18:02:08.655Z,63.00
2019-06-26T18:04:39.923Z,63.20
2019-06-26T18:07:09.976Z,63.50
2019-06-26T18:09:40.013Z,64.30
2019-06-26T18:12:10.064Z,64.40
2019-06-26T18:14:43.109Z,64.50
2019-06-26T18:17:21.749Z,64.70
2019-06-26T18:19:43.679Z,66.50
2019-06-26T18:22:13.724Z,67.50
2019-06-26T18:24:43.777Z,67.60
2019-06-26T18:27:13.984Z,68.60
2019-06-26T18:29:44.045Z,69.50
2019-06-26T18:32:14.082Z,70.70
2019-06-26T18:34:46.798Z,71.30
2019-06-26T18:37:15.959Z,71.50
2019-06-26T18:39:46.010Z,72.20
2019-06-26T18:42:16.070Z,72.90
2019-06-26T18:44:46.162Z,73.80
2019-06-26T18:47:17.563Z,76.30
2019-06-26T18:49:47.619Z,76.60
2019-06-26T18:52:17.692Z,76.70
2019-06-26T18:54:48.291Z,76.80
2019-06-26T18:57:18.447Z,77.30
2019-06-26T18:59:48.479Z,78.70
2019-06-26T19:02:18.553Z,78.90
2019-06-26T19:04:48.616Z,79.60
2019-06-26T19:07:18.849Z,80.90
2019-06-26T19:09:48.914Z,81.70
2019-06-26T19:12:19.035Z,82.10
2019-06-26T19:14:49.146Z,82.80
2019-06-26T19:17:22.205Z,82.40
2019-06-26T19:19:52.340Z,82.80
2019-06-26T19:22:22.614Z,83.70
2019-06-26T19:24:52.738Z,84.10
2019-06-26T19:27:22.867Z,86.10
2019-06-26T19:29:52.919Z,87.90
2019-06-26T19:32:23.023Z,88.30
2019-06-26T19:34:53.126Z,88.60
2019-06-26T19:37:23.247Z,90.20
2019-06-26T19:39:53.552Z,90.60
2019-06-26T19:42:23.660Z,91.10
2019-06-26T19:44:53.710Z,91.10
2019-06-26T19:47:23.759Z,91.40
2019-06-26T19:49:53.828Z,92.40
2019-06-26T19:52:23.959Z,92.40
2019-06-26T19:54:54.147Z,92.60
2019-06-26T19:57:24.357Z,92.50
2019-06-26T19:59:54.481Z,91.70
2019-06-26T20:02:24.532Z,91.10
2019-06-26T20:04:54.595Z,91.30
2019-06-26T20:07:24.727Z,91.20
2019-06-26T20:09:54.862Z,90.90
2019-06-26T20:12:24.977Z,91.00
2019-06-26T20:14:55.116Z,91.00
2019-06-26T20:17:25.350Z,90.90
2019-06-26T20:19:55.409Z,91.50
2019-06-26T20:22:25.615Z,91.00
2019-06-26T20:24:57.402Z,91.30
2019-06-26T20:27:27.445Z,91.50
2019-06-26T20:29:57.578Z,91.80
2019-06-26T20:32:27.628Z,92.20
2019-06-26T20:34:57.714Z,92.30
2019-06-26T20:37:27.878Z,92.20
2019-06-26T20:39:58.329Z,92.60
2019-06-26T20:42:28.415Z,92.20
2019-06-26T20:44:58.749Z,92.10
2019-06-26T20:47:28.842Z,92.20
2019-06-26T20:49:58.868Z,92.60
2019-06-26T20:52:31.146Z,93.10
2019-06-26T20:55:02.762Z,92.80
2019-06-26T20:57:33.118Z,92.90
2019-06-26T21:00:03.659Z,93.30
2019-06-26T21:02:35.321Z,93.30
2019-06-26T21:05:06.829Z,93.70
2019-06-26T21:07:37.226Z,93.60
2019-06-26T21:10:07.933Z,93.40
2019-06-26T21:12:39.062Z,93.50
2019-06-26T21:15:09.958Z,94.30
2019-06-26T21:17:40.098Z,94.30
2019-06-26T21:20:10.906Z,94.60
2019-06-26T21:22:40.946Z,94.60
2019-06-26T21:25:19.150Z,94.80
2019-06-26T21:27:42.817Z,94.80
2019-06-26T21:30:13.150Z,95.00
2019-06-26T21:32:43.207Z,95.00
2019-06-26T21:35:13.337Z,95.40
2019-06-26T21:37:43.443Z,95.80
2019-06-26T21:40:13.755Z,95.70
2019-06-26T21:42:43.892Z,95.90
2019-06-26T21:45:14.750Z,95.80
2019-06-26T21:47:44.852Z,95.80
2019-06-26T21:50:15.039Z,96.10
2019-06-26T21:52:45.086Z,96.40
2019-06-26T21:55:30.104Z,96.40
2019-06-26T21:58:06.351Z,96.50
2019-06-26T22:00:54.271Z,96.40
2019-06-26T22:03:42.463Z,96.30
2019-06-26T22:06:17.411Z,96.30
2019-06-26T22:09:08.459Z,96.40
2019-06-26T22:11:40.111Z,96.50
2019-06-26T22:14:10.383Z,96.70
2019-06-26T22:16:40.508Z,96.70
2019-06-26T22:19:10.673Z,96.80
2019-06-26T22:21:40.743Z,97.10
2019-06-26T22:24:10.970Z,97.20
2019-06-26T22:26:42.235Z,97.30
2019-06-26T22:29:12.459Z,97.80
2019-06-26T22:31:42.660Z,97.50
2019-06-26T22:34:12.732Z,98.10
2019-06-26T22:36:51.245Z,98.40
2019-06-26T22:39:14.657Z,98.60
2019-06-26T22:41:44.758Z,98.90
2019-06-26T22:44:14.868Z,98.90
2019-06-26T22:46:45.004Z,99.10
2019-06-26T22:49:15.125Z,99.30
2019-06-26T22:51:45.178Z,99.50
2019-06-26T22:54:15.415Z,99.60
2019-06-26T22:56:45.415Z,98.70
2019-06-26T22:59:15.469Z,99.40
2019-06-26T23:01:45.526Z,99.70
2019-06-26T23:04:15.587Z,99.10
2019-06-26T23:06:45.699Z,99.20
2019-06-26T23:09:15.756Z,98.90
2019-06-26T23:11:45.858Z,99.80
2019-06-26T23:14:15.925Z,99.90
2019-06-26T23:16:45.971Z,99.90
2019-06-26T23:19:16.163Z,99.20
2019-06-26T23:21:46.284Z,98.80
2019-06-26T23:24:17.431Z,99.40
2019-06-26T23:26:47.492Z,99.20
2019-06-26T23:29:17.521Z,99.90
2019-06-26T23:31:47.592Z,99.10
2019-06-26T23:34:17.641Z,99.90
2019-06-26T23:36:47.686Z,99.10
2019-06-26T23:39:17.809Z,99.20
2019-06-26T23:41:47.945Z,99.60
2019-06-26T23:44:17.991Z,99.90
2019-06-26T23:46:48.135Z,99.90
2019-06-26T23:49:18.173Z,99.90
2019-06-26T23:51:48.239Z,99.90
2019-06-26T23:54:18.369Z,99.90
2019-06-26T23:56:48.424Z,99.90
2019-06-26T23:59:18.510Z,99.90
